createdAt,value
2022-09-24T00:04:32.513Z,22.20
2022-09-24T00:09:37.545Z,24.25
2022-09-24T00:14:41.421Z,22.30
2022-09-24T00:19:45.124Z,19.45
2022-09-24T00:25:07.753Z,18.92
2022-09-24T00:30:12.466Z,19.95
2022-09-24T00:35:16.691Z,21.30
2022-09-24T00:40:21.871Z,19.20
2022-09-24T00:45:27.658Z,19.65
2022-09-24T00:50:34.075Z,23.52
2022-09-24T00:55:43.804Z,18.83
2022-09-24T01:00:47.587Z,17.55
2022-09-24T01:05:52.240Z,21.60
2022-09-24T01:11:12.597Z,20.27
2022-09-24T01:16:23.733Z,18.80
2022-09-24T01:21:37.237Z,18.25
2022-09-24T01:26:55.627Z,19.58
2022-09-24T01:37:07.961Z,20.57
2022-09-24T01:42:13.320Z,20.83
2022-09-24T01:47:25.573Z,20.42
2022-09-24T01:52:33.009Z,21.10
2022-09-24T01:57:42.231Z,22.42
2022-09-24T02:02:51.283Z,21.75
2022-09-24T02:08:02.359Z,21.42
2022-09-24T02:13:13.336Z,20.02
2022-09-24T02:18:21.769Z,22.80
2022-09-24T02:28:32.383Z,23.73
2022-09-24T02:34:00.037Z,21.83
2022-09-24T02:39:04.356Z,24.77
2022-09-24T02:44:08.107Z,21.42
2022-09-24T02:49:14.164Z,23.20
2022-09-24T02:54:17.947Z,24.30
2022-09-24T02:59:21.723Z,23.27
2022-09-24T03:04:26.940Z,24.12
2022-09-24T03:09:31.196Z,20.75
2022-09-24T03:14:34.870Z,21.62
2022-09-24T03:19:40.075Z,20.02
2022-09-24T03:24:43.802Z,17.65
2022-09-24T03:30:05.256Z,15.45
2022-09-24T03:35:11.916Z,17.05
2022-09-24T03:40:15.804Z,17.17
2022-09-24T03:45:19.543Z,20.42
2022-09-24T03:50:24.616Z,19.48
2022-09-24T03:55:28.353Z,19.55
2022-09-24T04:00:32.083Z,20.12
2022-09-24T04:05:37.758Z,20.10
2022-09-24T04:10:41.434Z,20.27
2022-09-24T04:15:45.176Z,17.62
2022-09-24T04:20:50.717Z,15.10
2022-09-24T04:25:55.249Z,15.85
2022-09-24T04:30:59.749Z,14.32
2022-09-24T04:36:05.164Z,11.95
2022-09-24T04:41:10.098Z,13.62
2022-09-24T04:46:14.451Z,16.10
2022-09-24T04:51:21.336Z,13.85
2022-09-24T04:56:24.997Z,15.77
2022-09-24T05:01:29.143Z,21.45
2022-09-24T05:06:34.270Z,18.12
2022-09-24T05:11:37.973Z,14.85
2022-09-24T05:16:41.732Z,12.68
2022-09-24T05:21:47.021Z,14.00
2022-09-24T05:27:08.499Z,12.55
2022-09-24T05:32:15.181Z,13.18
2022-09-24T05:37:20.663Z,13.18
2022-09-24T05:42:24.404Z,14.77
2022-09-24T05:47:28.211Z,14.00
2022-09-24T05:52:33.313Z,16.58
2022-09-24T05:57:37.343Z,15.82
2022-09-24T06:02:41.172Z,17.25
2022-09-24T06:07:46.171Z,14.95
2022-09-24T06:12:50.533Z,16.80
2022-09-24T06:17:55.256Z,16.30
2022-09-24T06:23:00.701Z,15.70
2022-09-24T06:28:05.812Z,17.20
2022-09-24T06:33:11.121Z,19.85
2022-09-24T06:38:20.187Z,21.37
2022-09-24T06:43:23.852Z,21.60
2022-09-24T06:48:28.826Z,21.42
2022-09-24T06:53:33.960Z,27.48
2022-09-24T06:58:37.620Z,22.98
2022-09-24T07:03:41.383Z,23.92
2022-09-24T07:08:50.933Z,22.75
2022-09-24T07:13:54.647Z,22.95
2022-09-24T07:18:58.596Z,29.23
2022-09-24T07:24:04.237Z,26.58
2022-09-24T07:29:07.975Z,27.27
2022-09-24T07:34:11.999Z,24.40
2022-09-24T07:39:17.672Z,26.17
2022-09-24T07:44:23.047Z,28.55
2022-09-24T07:49:29.014Z,26.08
2022-09-24T07:54:34.227Z,26.17
2022-09-24T07:59:37.921Z,24.67
2022-09-24T08:04:41.621Z,24.60
2022-09-24T08:09:46.704Z,28.77
2022-09-24T08:14:51.697Z,26.98
2022-09-24T08:19:57.100Z,30.88
2022-09-24T08:25:03.307Z,31.40
2022-09-24T08:30:08.607Z,30.80
2022-09-24T08:35:12.425Z,34.72
2022-09-24T08:40:21.359Z,31.27
2022-09-24T08:45:42.870Z,29.50
2022-09-24T08:50:52.288Z,28.70
2022-09-24T08:56:00.250Z,29.17
2022-09-24T09:01:15.048Z,34.65
2022-09-24T09:06:41.933Z,33.40
2022-09-24T09:11:50.163Z,28.40
2022-09-24T09:16:58.630Z,29.42
2022-09-24T09:27:15.367Z,27.52
2022-09-24T09:32:31.531Z,28.83
2022-09-24T09:37:45.496Z,29.55
2022-09-24T09:42:50.776Z,26.70
2022-09-24T09:47:57.202Z,28.92
2022-09-24T09:53:02.259Z,26.60
2022-09-24T09:58:20.608Z,29.33
2022-09-24T10:08:33.573Z,26.80
2022-09-24T10:13:38.624Z,24.02
2022-09-24T10:18:46.640Z,25.33
2022-09-24T10:23:50.336Z,25.00
2022-09-24T10:29:13.412Z,27.02
2022-09-24T10:34:23.782Z,25.27
2022-09-24T10:39:27.563Z,26.05
2022-09-24T10:44:37.287Z,22.65
2022-09-24T10:49:55.035Z,23.42
2022-09-24T10:55:11.766Z,24.48
2022-09-24T11:00:21.690Z,19.50
2022-09-24T11:05:29.339Z,23.98
2022-09-24T11:10:53.381Z,23.27
2022-09-24T11:16:20.834Z,22.98
2022-09-24T11:21:34.412Z,23.27
2022-09-24T11:26:58.796Z,23.05
2022-09-24T11:32:13.855Z,23.30
2022-09-24T11:37:29.501Z,20.88
2022-09-24T11:42:40.198Z,21.92
2022-09-24T11:47:58.890Z,21.40
2022-09-24T11:53:07.934Z,21.27
2022-09-24T11:58:17.999Z,23.08
2022-09-24T12:03:26.674Z,24.80
2022-09-24T12:08:38.117Z,19.48
2022-09-24T12:13:46.993Z,18.67
2022-09-24T12:18:57.577Z,19.60
2022-09-24T12:24:05.219Z,19.20
2022-09-24T12:29:52.039Z,20.77
2022-09-24T12:35:03.299Z,12.90
2022-09-24T12:40:25.085Z,21.70
2022-09-24T12:45:29.472Z,15.57
2022-09-24T12:50:36.979Z,10.98
2022-09-24T12:55:47.089Z,11.53
2022-09-24T13:00:53.449Z,9.02
2022-09-24T13:06:00.267Z,8.77
2022-09-24T13:11:06.884Z,10.95
2022-09-24T13:16:19.905Z,11.45
2022-09-24T13:21:27.858Z,9.30
2022-09-24T13:26:34.933Z,10.07
2022-09-24T13:31:47.861Z,9.98
2022-09-24T13:36:58.938Z,9.52
2022-09-24T13:42:08.580Z,10.80
2022-09-24T13:47:16.533Z,10.52
2022-09-24T13:52:30.589Z,10.88
2022-09-24T13:57:44.565Z,14.05
2022-09-24T14:03:02.763Z,11.77
2022-09-24T14:08:09.636Z,12.10
2022-09-24T14:13:19.210Z,12.43
2022-09-24T14:18:24.409Z,11.57
2022-09-24T14:23:34.360Z,12.05
2022-09-24T14:28:38.323Z,19.33
2022-09-24T14:33:42.197Z,10.52
2022-09-24T14:38:53.928Z,14.98
2022-09-24T14:44:01.317Z,12.23
2022-09-24T14:49:06.528Z,14.25
2022-09-24T14:54:28.390Z,11.93
2022-09-24T14:59:37.297Z,18.30
2022-09-24T15:04:40.995Z,15.55
2022-09-24T15:09:50.545Z,11.77
2022-09-24T15:14:56.522Z,11.77
2022-09-24T15:20:00.779Z,13.48
2022-09-24T15:25:07.220Z,14.30
2022-09-24T15:30:14.140Z,12.95
2022-09-24T15:35:18.314Z,13.02
2022-09-24T15:40:26.452Z,16.83
2022-09-24T15:45:30.966Z,14.80
2022-09-24T15:50:34.879Z,13.95
2022-09-24T15:55:40.267Z,11.93
2022-09-24T16:00:44.380Z,9.75
2022-09-24T16:05:48.839Z,8.02
2022-09-24T16:10:54.777Z,7.25
2022-09-24T16:16:03.136Z,4.30
2022-09-24T16:21:09.597Z,3.80
2022-09-24T16:26:14.690Z,2.97
2022-09-24T16:31:18.841Z,2.87
2022-09-24T16:36:23.861Z,2.10
2022-09-24T16:41:34.313Z,1.80
2022-09-24T16:46:38.093Z,1.90
2022-09-24T16:51:41.994Z,3.35
2022-09-24T16:56:49.376Z,2.55
2022-09-24T17:01:54.010Z,4.40
2022-09-24T17:06:58.187Z,2.47
2022-09-24T17:12:03.379Z,5.87
2022-09-24T17:17:07.565Z,5.05
2022-09-24T17:22:11.285Z,5.80
2022-09-24T17:27:16.360Z,3.85
2022-09-24T17:32:20.295Z,3.72
2022-09-24T17:37:24.440Z,5.57
2022-09-24T17:42:31.615Z,6.68
2022-09-24T17:47:49.312Z,5.68
2022-09-24T17:52:53.070Z,4.60
2022-09-24T17:57:58.179Z,3.80
2022-09-24T18:03:01.898Z,4.22
2022-09-24T18:08:06.104Z,5.80
2022-09-24T18:13:11.146Z,9.40
2022-09-24T18:18:14.852Z,11.27
2022-09-24T18:23:18.737Z,8.77
2022-09-24T18:28:24.277Z,7.55
2022-09-24T18:33:28.073Z,8.13
2022-09-24T18:38:32.719Z,8.55
2022-09-24T18:43:37.898Z,5.47
2022-09-24T18:48:43.826Z,9.55
2022-09-24T18:53:52.938Z,9.88
2022-09-24T18:58:58.691Z,9.05
2022-09-24T19:04:03.114Z,7.15
2022-09-24T19:09:07.273Z,10.90
2022-09-24T19:14:13.641Z,7.28
2022-09-24T19:19:17.443Z,11.45
2022-09-24T19:24:21.268Z,16.45
2022-09-24T19:29:26.403Z,12.50
2022-09-24T19:34:30.112Z,8.38
2022-09-24T19:39:33.852Z,11.15
2022-09-24T19:44:38.951Z,12.25
2022-09-24T19:49:42.652Z,8.05
2022-09-24T19:54:49.495Z,14.65
2022-09-24T19:59:55.340Z,12.37
2022-09-24T20:04:59.064Z,11.95
2022-09-24T20:10:02.894Z,8.93
2022-09-24T20:15:09.982Z,10.75
2022-09-24T20:20:14.148Z,10.88
2022-09-24T20:25:18.134Z,17.00
2022-09-24T20:30:23.798Z,7.68
2022-09-24T20:35:27.550Z,8.60
2022-09-24T20:40:31.328Z,6.97
2022-09-24T20:45:41.255Z,8.75
2022-09-24T20:50:44.931Z,6.90
2022-09-24T20:55:48.642Z,8.50
2022-09-24T21:00:55.410Z,8.95
2022-09-24T21:06:03.985Z,11.77
2022-09-24T21:11:09.861Z,8.73
2022-09-24T21:16:17.566Z,7.00
2022-09-24T21:21:23.080Z,9.87
2022-09-24T21:26:28.551Z,9.35
2022-09-24T21:31:35.038Z,6.37
2022-09-24T21:36:44.523Z,8.80
2022-09-24T21:41:53.194Z,22.10
2022-09-24T21:52:04.975Z,11.52
2022-09-24T21:57:08.656Z,13.88
2022-09-24T22:02:15.497Z,13.60
2022-09-24T22:07:20.027Z,17.77
2022-09-24T22:12:23.683Z,9.27
2022-09-24T22:17:28.696Z,7.57
2022-09-24T22:22:32.379Z,13.18
2022-09-24T22:27:36.080Z,12.07
2022-09-24T22:32:41.131Z,16.42
2022-09-24T22:37:44.793Z,8.55
2022-09-24T22:42:48.471Z,13.25
2022-09-24T22:47:56.722Z,7.05
2022-09-24T22:53:01.892Z,10.70
2022-09-24T22:58:05.580Z,9.88
2022-09-24T23:03:10.775Z,18.62
2022-09-24T23:08:14.528Z,11.27
2022-09-24T23:13:18.485Z,14.90
2022-09-24T23:18:23.507Z,10.52
2022-09-24T23:23:27.177Z,10.60
2022-09-24T23:28:30.960Z,9.63
2022-09-24T23:33:39.355Z,7.78
2022-09-24T23:43:46.406Z,15.15
2022-09-24T23:48:51.452Z,20.77
2022-09-24T23:53:55.272Z,14.35
2022-09-24T23:58:59.012Z,7.53
